createdAt,value
2023-08-28T00:02:14.197Z,22.27
2023-08-28T00:05:37.038Z,22.57
2023-08-28T00:09:01.695Z,24.75
2023-08-28T00:12:24.395Z,20.90
2023-08-28T00:15:46.943Z,24.40
2023-08-28T00:19:10.803Z,24.63
2023-08-28T00:22:33.153Z,20.97
2023-08-28T00:25:55.580Z,21.33
2023-08-28T00:29:18.012Z,21.48
2023-08-28T00:32:40.762Z,21.58
2023-08-28T00:36:06.998Z,24.50
2023-08-28T00:39:29.956Z,21.02
2023-08-28T00:42:52.657Z,21.02
2023-08-28T00:46:15.169Z,20.58
2023-08-28T00:49:37.758Z,20.05
2023-08-28T00:53:02.652Z,20.07
2023-08-28T00:56:25.982Z,22.33
2023-08-28T00:59:48.518Z,25.75
2023-08-28T01:03:11.109Z,22.35
2023-08-28T01:06:37.649Z,20.40
2023-08-28T01:10:06.606Z,23.42
2023-08-28T01:13:32.958Z,19.33
2023-08-28T01:16:56.363Z,23.75
2023-08-28T01:20:19.094Z,20.65
2023-08-28T01:23:46.908Z,18.53
2023-08-28T01:27:11.117Z,23.33
2023-08-28T01:30:33.408Z,22.20
2023-08-28T01:33:56.461Z,19.77
2023-08-28T01:37:19.044Z,20.50
2023-08-28T01:40:42.864Z,19.27
2023-08-28T01:44:07.613Z,20.98
2023-08-28T01:47:30.450Z,18.80
2023-08-28T01:50:52.885Z,18.85
2023-08-28T01:54:15.386Z,21.15
2023-08-28T01:57:37.814Z,20.73
2023-08-28T02:01:01.814Z,18.92
2023-08-28T02:04:24.319Z,21.20
2023-08-28T02:07:46.751Z,18.98
2023-08-28T02:11:09.758Z,22.50
2023-08-28T02:14:32.420Z,20.02
2023-08-28T02:17:57.041Z,18.55
2023-08-28T02:21:19.571Z,20.37
2023-08-28T02:24:44.764Z,18.15
2023-08-28T02:28:07.770Z,22.67
2023-08-28T02:31:30.373Z,22.80
2023-08-28T02:34:54.355Z,23.48
2023-08-28T02:38:17.193Z,21.05
2023-08-28T02:41:40.967Z,21.37
2023-08-28T02:45:05.482Z,21.37
2023-08-28T02:48:27.717Z,18.70
2023-08-28T02:51:51.528Z,18.48
2023-08-28T02:55:13.974Z,20.33
2023-08-28T02:58:36.442Z,18.37
2023-08-28T03:01:58.901Z,20.73
2023-08-28T03:05:21.180Z,19.52
2023-08-28T03:08:45.190Z,22.73
2023-08-28T03:12:08.089Z,24.12
2023-08-28T03:15:30.841Z,19.37
2023-08-28T03:18:53.774Z,20.90
2023-08-28T03:22:16.266Z,22.30
2023-08-28T03:25:40.139Z,18.52
2023-08-28T03:29:02.583Z,23.48
2023-08-28T03:32:27.368Z,21.58
2023-08-28T03:35:50.267Z,19.80
2023-08-28T03:39:12.861Z,20.08
2023-08-28T03:42:36.863Z,16.85
2023-08-28T03:45:59.596Z,20.67
2023-08-28T03:49:22.107Z,26.13
2023-08-28T03:52:44.641Z,22.20
2023-08-28T03:56:07.103Z,20.88
2023-08-28T03:59:30.963Z,19.73
2023-08-28T04:02:53.825Z,22.87
2023-08-28T04:06:16.366Z,20.57
2023-08-28T04:09:38.811Z,24.92
2023-08-28T04:13:01.896Z,21.75
2023-08-28T04:16:26.536Z,22.62
2023-08-28T04:19:52.502Z,24.92
2023-08-28T04:23:15.281Z,21.57
2023-08-28T04:26:38.074Z,21.17
2023-08-28T04:30:00.510Z,23.45
2023-08-28T04:33:24.987Z,24.75
2023-08-28T04:36:49.930Z,24.87
2023-08-28T04:40:13.401Z,26.03
2023-08-28T04:43:35.559Z,27.05
2023-08-28T04:46:59.872Z,22.83
2023-08-28T04:50:23.665Z,29.98
2023-08-28T04:53:46.217Z,23.30
2023-08-28T04:57:08.741Z,26.87
2023-08-28T05:00:31.274Z,22.15
2023-08-28T05:03:53.730Z,23.02
2023-08-28T05:07:17.787Z,24.80
2023-08-28T05:10:39.925Z,20.52
2023-08-28T05:14:02.529Z,23.50
2023-08-28T05:17:25.143Z,23.33
2023-08-28T05:20:47.511Z,23.77
2023-08-28T05:24:11.566Z,30.15
2023-08-28T05:27:34.160Z,28.83
2023-08-28T05:30:58.758Z,24.80
2023-08-28T05:34:21.563Z,21.30
2023-08-28T05:37:44.072Z,20.55
2023-08-28T05:41:08.067Z,20.42
2023-08-28T05:44:30.416Z,22.55
2023-08-28T05:47:54.388Z,21.20
2023-08-28T05:51:16.855Z,17.65
2023-08-28T05:54:39.376Z,22.40
2023-08-28T05:58:03.829Z,17.20
2023-08-28T06:01:26.382Z,17.83
2023-08-28T06:04:51.656Z,20.33
2023-08-28T06:08:18.018Z,21.87
2023-08-28T06:11:42.676Z,24.37
2023-08-28T06:15:07.532Z,25.30
2023-08-28T06:18:30.114Z,20.35
2023-08-28T06:21:52.704Z,19.07
2023-08-28T06:25:15.363Z,18.37
2023-08-28T06:28:40.907Z,18.90
2023-08-28T06:32:05.111Z,19.52
2023-08-28T06:35:28.374Z,19.42
2023-08-28T06:38:53.415Z,19.83
2023-08-28T06:42:15.856Z,18.52
2023-08-28T06:45:38.659Z,22.15
2023-08-28T06:49:02.650Z,16.15
2023-08-28T06:52:25.249Z,16.08
2023-08-28T06:55:47.852Z,17.17
2023-08-28T06:59:10.596Z,17.35
2023-08-28T07:02:33.312Z,16.62
2023-08-28T07:05:58.062Z,14.38
2023-08-28T07:09:20.517Z,14.53
2023-08-28T07:12:43.189Z,19.00
2023-08-28T07:16:06.046Z,19.30
2023-08-28T07:19:28.803Z,13.88
2023-08-28T07:22:53.236Z,16.35
2023-08-28T07:26:15.848Z,21.60
2023-08-28T07:29:38.209Z,16.25
2023-08-28T07:33:00.739Z,16.98
2023-08-28T07:36:24.919Z,16.60
2023-08-28T07:39:48.727Z,12.93
2023-08-28T07:43:10.978Z,13.07
2023-08-28T07:46:36.461Z,17.40
2023-08-28T07:49:58.805Z,17.33
2023-08-28T07:53:21.803Z,14.48
2023-08-28T07:56:45.692Z,15.23
2023-08-28T08:00:11.387Z,15.97
2023-08-28T08:03:35.485Z,14.18
2023-08-28T08:06:57.943Z,13.15
2023-08-28T08:10:20.365Z,16.58
2023-08-28T08:13:44.357Z,16.45
2023-08-28T08:17:06.715Z,19.47
2023-08-28T08:20:29.356Z,16.15
2023-08-28T08:23:51.654Z,13.23
2023-08-28T08:27:14.084Z,15.30
2023-08-28T08:30:38.179Z,18.27
2023-08-28T08:34:00.921Z,15.43
2023-08-28T08:37:23.317Z,14.68
2023-08-28T08:40:45.872Z,15.60
2023-08-28T08:44:08.474Z,13.05
2023-08-28T08:47:32.622Z,13.70
2023-08-28T08:50:55.046Z,15.60
2023-08-28T08:54:20.225Z,15.50
2023-08-28T08:57:43.994Z,11.30
2023-08-28T09:01:06.762Z,12.45
2023-08-28T09:04:31.165Z,12.27
2023-08-28T09:07:53.864Z,13.17
2023-08-28T09:11:16.417Z,15.93
2023-08-28T09:14:41.243Z,13.00
2023-08-28T09:18:04.038Z,17.15
2023-08-28T09:21:28.839Z,11.13
2023-08-28T09:24:53.216Z,10.07
2023-08-28T09:28:15.864Z,14.80
2023-08-28T09:31:40.798Z,13.68
2023-08-28T09:35:06.082Z,13.82
2023-08-28T09:38:32.990Z,16.60
2023-08-28T09:41:55.542Z,17.85
2023-08-28T09:45:18.039Z,17.85
2023-08-28T09:48:43.112Z,15.73
2023-08-28T09:52:05.826Z,17.87
2023-08-28T09:55:31.057Z,14.45
2023-08-28T09:58:53.236Z,20.17
2023-08-28T10:02:21.539Z,17.23
2023-08-28T10:05:48.310Z,13.93
2023-08-28T10:09:16.648Z,15.43
2023-08-28T10:12:41.838Z,16.80
2023-08-28T10:16:06.722Z,15.05
2023-08-28T10:19:32.308Z,13.67
2023-08-28T10:22:55.107Z,15.13
2023-08-28T10:26:17.783Z,17.42
2023-08-28T10:29:41.786Z,17.27
2023-08-28T10:33:05.442Z,14.20
2023-08-28T10:39:54.188Z,16.37
2023-08-28T10:43:16.709Z,15.65
2023-08-28T10:46:40.731Z,18.35
2023-08-28T10:50:03.502Z,18.67
2023-08-28T10:53:26.513Z,20.30
2023-08-28T10:56:55.434Z,24.70
2023-08-28T11:00:19.465Z,17.90
2023-08-28T11:04:07.916Z,16.50
2023-08-28T11:07:49.210Z,19.60
2023-08-28T11:11:15.188Z,23.62
2023-08-28T11:14:53.086Z,16.83
2023-08-28T11:18:30.860Z,21.23
2023-08-28T11:21:54.800Z,17.90
2023-08-28T11:25:37.098Z,18.12
2023-08-28T11:29:00.123Z,13.23
2023-08-28T11:32:22.701Z,14.63
2023-08-28T11:35:45.245Z,15.60
2023-08-28T11:39:09.135Z,18.50
2023-08-28T11:42:31.815Z,18.93
2023-08-28T11:45:58.678Z,14.43
2023-08-28T11:49:23.884Z,15.95
2023-08-28T11:52:49.558Z,16.15
2023-08-28T11:56:14.897Z,11.23
2023-08-28T11:59:38.110Z,12.13
2023-08-28T12:03:02.933Z,12.50
2023-08-28T12:06:25.626Z,13.90
2023-08-28T12:09:48.420Z,15.77
2023-08-28T12:13:12.526Z,14.15
2023-08-28T12:16:35.068Z,16.37
2023-08-28T12:19:58.095Z,13.15
2023-08-28T12:23:20.662Z,9.70
2023-08-28T12:26:44.438Z,15.30
2023-08-28T12:30:09.574Z,17.25
2023-08-28T12:33:32.211Z,11.20
2023-08-28T12:36:54.623Z,13.82
2023-08-28T12:40:17.610Z,14.15
2023-08-28T12:43:39.829Z,13.32
2023-08-28T12:47:04.406Z,12.07
2023-08-28T12:50:26.959Z,11.50
2023-08-28T12:53:49.384Z,15.65
2023-08-28T12:57:11.988Z,13.83
2023-08-28T13:00:34.506Z,13.15
2023-08-28T13:03:58.644Z,14.82
2023-08-28T13:07:21.101Z,11.50
2023-08-28T13:10:43.596Z,20.03
2023-08-28T13:14:07.145Z,12.23
2023-08-28T13:17:29.755Z,11.93
2023-08-28T13:20:53.924Z,12.57
2023-08-28T13:24:17.389Z,15.23
2023-08-28T13:27:41.594Z,13.05
2023-08-28T13:31:05.086Z,12.15
2023-08-28T13:34:30.093Z,14.20
2023-08-28T13:37:54.101Z,13.68
2023-08-28T13:41:16.735Z,13.02
2023-08-28T13:44:39.263Z,14.13
2023-08-28T13:48:01.870Z,14.43
2023-08-28T13:51:24.427Z,17.80
2023-08-28T13:54:48.366Z,14.25
2023-08-28T13:58:11.000Z,15.33
2023-08-28T14:01:34.993Z,21.87
2023-08-28T14:04:57.782Z,20.33
2023-08-28T14:08:20.376Z,12.00
2023-08-28T14:11:46.656Z,16.60
2023-08-28T14:15:09.687Z,14.05
2023-08-28T14:18:32.833Z,17.33
2023-08-28T14:21:55.100Z,13.63
2023-08-28T14:25:17.679Z,14.23
2023-08-28T14:28:41.415Z,18.70
2023-08-28T14:32:04.038Z,15.38
2023-08-28T14:35:26.468Z,17.58
2023-08-28T14:38:49.461Z,13.62
2023-08-28T14:42:12.050Z,13.68
2023-08-28T14:45:36.440Z,9.90
2023-08-28T14:48:59.381Z,13.60
2023-08-28T14:52:22.248Z,15.63
2023-08-28T14:55:44.556Z,20.20
2023-08-28T14:59:07.326Z,15.80
2023-08-28T15:02:33.347Z,18.20
2023-08-28T15:05:57.111Z,11.73
2023-08-28T15:09:19.897Z,11.87
2023-08-28T15:12:42.756Z,13.95
2023-08-28T15:16:05.980Z,17.33
2023-08-28T15:19:30.394Z,17.30
2023-08-28T15:22:53.012Z,15.18
2023-08-28T15:26:17.097Z,15.20
2023-08-28T15:29:39.950Z,18.87
2023-08-28T15:33:03.551Z,14.50
2023-08-28T15:36:27.752Z,15.23
2023-08-28T15:39:51.126Z,17.87
2023-08-28T15:43:13.814Z,14.95
2023-08-28T15:46:36.614Z,15.73
2023-08-28T15:50:00.385Z,15.20
2023-08-28T15:53:26.030Z,14.45
2023-08-28T15:56:51.568Z,12.20
2023-08-28T16:00:16.194Z,14.82
2023-08-28T16:03:40.276Z,13.57
2023-08-28T16:07:03.904Z,19.12
2023-08-28T16:10:30.094Z,13.90
2023-08-28T16:13:53.739Z,11.40
2023-08-28T16:17:17.386Z,13.25
2023-08-28T16:20:44.430Z,15.50
2023-08-28T16:24:07.294Z,19.07
2023-08-28T16:27:34.000Z,18.20
2023-08-28T16:30:58.938Z,15.05
2023-08-28T16:34:25.103Z,18.42
2023-08-28T16:37:49.042Z,11.27
2023-08-28T16:41:12.638Z,11.40
2023-08-28T16:44:38.510Z,18.33
2023-08-28T16:48:02.248Z,14.60
2023-08-28T16:51:26.165Z,21.73
2023-08-28T16:54:49.546Z,14.50
2023-08-28T16:58:13.382Z,11.80
2023-08-28T17:01:38.827Z,13.95
2023-08-28T17:05:04.194Z,20.47
2023-08-28T17:08:27.615Z,15.35
2023-08-28T17:11:52.496Z,16.67
2023-08-28T17:15:16.678Z,14.30
2023-08-28T17:18:48.495Z,14.40
2023-08-28T17:22:13.462Z,20.98
2023-08-28T17:25:37.517Z,16.33
2023-08-28T17:29:00.857Z,13.60
2023-08-28T17:32:28.905Z,22.00
2023-08-28T17:35:54.609Z,22.33
2023-08-28T17:39:21.046Z,12.30
2023-08-28T17:42:45.219Z,12.60
2023-08-28T17:46:09.412Z,11.55
2023-08-28T17:49:33.438Z,17.77
2023-08-28T17:52:59.280Z,17.37
2023-08-28T17:56:23.523Z,15.18
2023-08-28T17:59:49.807Z,12.13
2023-08-28T18:03:24.097Z,22.73
2023-08-28T18:06:58.387Z,24.12
2023-08-28T18:10:25.684Z,22.25
2023-08-28T18:13:51.518Z,19.52
2023-08-28T18:17:15.363Z,17.90
2023-08-28T18:20:40.260Z,16.35
2023-08-28T18:24:04.958Z,20.62
2023-08-28T18:27:30.920Z,22.48
2023-08-28T18:30:56.422Z,17.05
2023-08-28T18:34:21.412Z,15.43
2023-08-28T18:37:45.986Z,16.30
2023-08-28T18:41:10.646Z,14.23
2023-08-28T18:44:37.432Z,19.73
2023-08-28T18:48:00.896Z,13.97
2023-08-28T18:51:26.974Z,17.15
2023-08-28T18:54:54.026Z,12.35
2023-08-28T18:58:18.302Z,26.42
2023-08-28T19:01:45.108Z,12.50
2023-08-28T19:05:11.982Z,14.17
2023-08-28T19:08:39.442Z,12.85
2023-08-28T19:12:05.091Z,17.45
2023-08-28T19:15:34.560Z,14.93
2023-08-28T19:19:02.414Z,18.30
2023-08-28T19:22:28.507Z,22.03
2023-08-28T19:25:53.827Z,15.63
2023-08-28T19:29:19.960Z,11.50
2023-08-28T19:32:44.999Z,13.80
2023-08-28T19:36:10.760Z,16.03
2023-08-28T19:39:34.963Z,15.70
2023-08-28T19:42:58.860Z,14.45
2023-08-28T19:46:24.126Z,10.63
2023-08-28T19:49:52.250Z,11.05
2023-08-28T19:53:18.069Z,14.87
2023-08-28T19:56:43.574Z,14.07
2023-08-28T20:00:08.753Z,13.20
2023-08-28T20:03:32.734Z,11.85
2023-08-28T20:06:57.055Z,13.65
2023-08-28T20:10:23.510Z,11.20
2023-08-28T20:13:48.301Z,13.52
2023-08-28T20:17:11.878Z,11.80
2023-08-28T20:20:35.836Z,11.00
2023-08-28T20:24:01.899Z,10.83
2023-08-28T20:27:28.055Z,13.27
2023-08-28T20:30:52.277Z,10.70
2023-08-28T20:34:16.860Z,10.57
2023-08-28T20:37:41.411Z,10.15
2023-08-28T20:41:04.967Z,7.63
2023-08-28T20:44:30.815Z,10.68
2023-08-28T20:47:54.561Z,16.75
2023-08-28T20:51:21.826Z,8.25
2023-08-28T20:54:44.914Z,11.77
2023-08-28T20:58:09.431Z,10.97
2023-08-28T21:01:33.390Z,15.88
2023-08-28T21:04:56.349Z,10.32
2023-08-28T21:08:18.865Z,8.45
2023-08-28T21:11:41.446Z,7.57
2023-08-28T21:15:04.255Z,10.63
2023-08-28T21:18:28.635Z,8.77
2023-08-28T21:21:50.850Z,16.95
2023-08-28T21:25:13.498Z,10.75
2023-08-28T21:28:36.393Z,10.43
2023-08-28T21:32:00.499Z,10.37
2023-08-28T21:35:24.594Z,12.68
2023-08-28T21:38:47.550Z,10.48
2023-08-28T21:42:09.698Z,17.70
2023-08-28T21:45:32.330Z,26.83
2023-08-28T21:48:54.544Z,19.90
2023-08-28T21:52:36.805Z,16.12
2023-08-28T21:56:17.788Z,15.45
2023-08-28T22:00:00.504Z,12.30
2023-08-28T22:03:41.519Z,14.05
2023-08-28T22:07:22.602Z,17.00
2023-08-28T22:10:48.542Z,13.18
2023-08-28T22:14:12.594Z,15.98
2023-08-28T22:17:35.064Z,13.98
2023-08-28T22:20:57.811Z,16.40
2023-08-28T22:24:20.398Z,10.85
2023-08-28T22:27:44.524Z,12.75
2023-08-28T22:31:07.144Z,12.27
2023-08-28T22:34:29.689Z,14.68
2023-08-28T22:37:52.354Z,14.40
2023-08-28T22:41:15.016Z,11.68
2023-08-28T22:44:38.946Z,15.05
2023-08-28T22:48:01.548Z,16.17
2023-08-28T22:51:25.003Z,11.80
2023-08-28T22:54:47.593Z,13.77
2023-08-28T22:58:10.243Z,10.82
2023-08-28T23:01:34.289Z,14.93
2023-08-28T23:04:56.924Z,11.40
2023-08-28T23:08:19.420Z,11.85
2023-08-28T23:11:42.079Z,11.43
2023-08-28T23:15:04.922Z,12.93
2023-08-28T23:18:29.096Z,13.18
2023-08-28T23:21:51.714Z,15.98
2023-08-28T23:25:14.313Z,13.45
2023-08-28T23:28:36.986Z,13.97
2023-08-28T23:31:59.756Z,12.18
2023-08-28T23:35:23.713Z,12.45
2023-08-28T23:38:46.385Z,14.40
2023-08-28T23:42:09.032Z,11.80
2023-08-28T23:45:31.736Z,13.83
2023-08-28T23:48:54.361Z,16.02
2023-08-28T23:52:18.446Z,14.23
2023-08-28T23:55:41.049Z,15.80
2023-08-28T23:59:03.926Z,13.70
